Time;durP1;ratioP1;P1;durP2;ratioP2;P2;SDS_P1;SDS_P2;PMS_P1;PMS_P2;Temp;Humidity;BMP_temperature;BMP_pressure;BME280_temperature;BME280_humidity;BME280_pressure;Samples;Min_cycle;Max_cycle;Signal;HPM_P1;HPM_P2
2023/10/03 00:00:15;;;;;;;61.13;20.48;;;;;;;18.03;100.00;100795.97;4931699;29;20494;-78
2023/10/03 00:02:41;;;;;;;54.90;20.25;;;;;;;18.11;100.00;100782.13;4905084;29;20052;-79
2023/10/03 00:05:08;;;;;;;70.50;21.15;;;;;;;18.16;100.00;100792.69;4932468;29;20035;-78
2023/10/03 00:07:33;;;;;;;62.60;20.67;;;;;;;18.10;100.00;100771.19;4941460;29;20046;-92
2023/10/03 00:09:59;;;;;;;62.78;20.77;;;;;;;18.16;100.00;100771.38;4897609;29;20027;-94
2023/10/03 00:12:24;;;;;;;60.33;19.90;;;;;;;18.18;100.00;100761.00;4913339;29;20032;-93
2023/10/03 00:14:51;;;;;;;62.65;19.80;;;;;;;18.26;100.00;100757.34;4939145;29;20553;-94
2023/10/03 00:17:17;;;;;;;62.58;20.20;;;;;;;18.29;100.00;100761.69;4897431;29;20036;-93
2023/10/03 00:19:42;;;;;;;62.97;21.30;;;;;;;18.27;100.00;100758.22;4892298;29;20046;-94
2023/10/03 00:22:08;;;;;;;62.85;19.55;;;;;;;18.45;100.00;100755.25;4911351;29;20031;-93
2023/10/03 00:24:33;;;;;;;64.70;20.45;;;;;;;18.52;100.00;100747.97;4894740;29;20064;-93
2023/10/03 00:26:59;;;;;;;62.28;19.88;;;;;;;18.54;100.00;100745.88;4912472;29;20046;-94
2023/10/03 00:29:29;;;;;;;61.30;19.73;;;;;;;18.51;100.00;100747.09;4939564;29;20040;-93
2023/10/03 00:31:58;;;;;;;70.90;21.60;;;;;;;18.50;100.00;100738.97;4901451;29;20035;-91
2023/10/03 00:34:27;;;;;;;58.08;19.83;;;;;;;18.58;100.00;100738.06;4917048;29;20063;-92
2023/10/03 00:36:54;;;;;;;64.57;20.40;;;;;;;18.56;100.00;100729.91;4913903;29;20038;-91
2023/10/03 00:39:20;;;;;;;64.15;20.50;;;;;;;18.54;100.00;100723.69;4921208;29;20064;-92
2023/10/03 00:41:46;;;;;;;72.32;20.10;;;;;;;18.51;100.00;100722.16;4902373;29;20036;-93
2023/10/03 00:44:12;;;;;;;61.50;20.42;;;;;;;18.51;100.00;100729.56;4882584;29;20036;-93
2023/10/03 00:46:37;;;;;;;64.72;21.55;;;;;;;18.48;100.00;100724.38;4918845;29;20099;-92
2023/10/03 00:49:10;;;;;;;62.30;19.40;;;;;;;18.50;100.00;100722.31;4906636;29;20051;-95
2023/10/03 00:51:37;;;;;;;62.45;21.25;;;;;;;18.50;100.00;100711.22;4905072;29;20040;-95
2023/10/03 00:54:03;;;;;;;67.93;21.55;;;;;;;18.41;100.00;100704.81;4892970;29;20054;-93
2023/10/03 00:56:30;;;;;;;64.13;21.58;;;;;;;18.43;100.00;100701.88;4896486;29;20042;-95
2023/10/03 00:58:57;;;;;;;67.10;21.25;;;;;;;18.43;100.00;100686.13;4914080;29;20119;-93
2023/10/03 01:01:22;;;;;;;59.28;20.80;;;;;;;18.44;100.00;100689.75;4907275;29;20059;-93
2023/10/03 01:03:48;;;;;;;60.53;21.80;;;;;;;18.38;100.00;100683.00;4908010;29;20040;-91
2023/10/03 01:06:15;;;;;;;63.35;20.38;;;;;;;18.35;100.00;100673.13;4932212;29;20043;-91
2023/10/03 01:08:46;;;;;;;60.60;19.80;;;;;;;18.29;100.00;100661.91;4929894;29;20031;-92
2023/10/03 01:11:25;;;;;;;59.92;21.40;;;;;;;18.30;100.00;100658.06;4916433;29;20040;-91
2023/10/03 01:14:00;;;;;;;64.35;21.75;;;;;;;18.26;100.00;100656.69;4909460;29;20497;-92
2023/10/03 01:16:36;;;;;;;59.55;20.08;;;;;;;18.25;100.00;100647.53;4914978;29;20059;-91
2023/10/03 01:19:20;;;;;;;58.72;20.67;;;;;;;18.24;100.00;100642.16;4919662;29;20079;-91
2023/10/03 01:21:46;;;;;;;66.97;19.98;;;;;;;18.25;100.00;100639.22;4913676;29;20707;-93
2023/10/03 01:24:20;;;;;;;62.15;19.90;;;;;;;18.25;100.00;100635.56;4905397;29;20034;-93
2023/10/03 01:26:45;;;;;;;63.33;19.98;;;;;;;18.24;100.00;100629.16;4929798;29;20035;-92
2023/10/03 01:29:11;;;;;;;61.67;20.27;;;;;;;18.20;100.00;100616.72;4890981;29;20114;-91
2023/10/03 01:31:39;;;;;;;69.63;19.80;;;;;;;18.22;100.00;100611.84;4890586;29;20052;-91
2023/10/03 01:34:05;;;;;;;61.00;20.40;;;;;;;18.17;100.00;100609.59;4925475;29;20048;-92
2023/10/03 01:36:31;;;;;;;63.05;20.30;;;;;;;18.14;100.00;100598.03;4898094;29;20036;-92
2023/10/03 01:38:57;;;;;;;58.60;19.80;;;;;;;18.19;100.00;100596.44;4917430;29;20182;-92
2023/10/03 01:41:22;;;;;;;58.10;19.98;;;;;;;18.18;100.00;100594.72;4935077;29;20034;-93
2023/10/03 01:43:48;;;;;;;65.70;21.33;;;;;;;18.19;100.00;100607.50;4935826;29;20027;-92
2023/10/03 01:46:14;;;;;;;57.95;20.77;;;;;;;18.18;100.00;100605.81;4905059;29;20122;-92
2023/10/03 01:48:39;;;;;;;60.83;20.27;;;;;;;18.11;100.00;100599.22;4901294;29;20091;-91
2023/10/03 01:51:07;;;;;;;62.45;20.50;;;;;;;18.02;100.00;100580.91;4921059;29;20082;-93
2023/10/03 01:53:34;;;;;;;58.35;19.48;;;;;;;18.05;100.00;100585.22;4931028;29;20035;-90
2023/10/03 01:56:03;;;;;;;58.63;20.25;;;;;;;18.07;100.00;100580.34;4906461;29;20034;-92
2023/10/03 01:58:29;;;;;;;63.30;19.83;;;;;;;18.08;100.00;100577.41;4889385;29;20070;-92
2023/10/03 02:00:55;;;;;;;66.38;20.75;;;;;;;18.05;100.00;100574.13;4919540;29;20059;-92
2023/10/03 02:03:22;;;;;;;56.88;19.15;;;;;;;18.03;100.00;100584.53;4885801;29;20032;-91
2023/10/03 02:05:49;;;;;;;60.65;18.85;;;;;;;18.03;100.00;100579.84;4912696;29;20032;-93
2023/10/03 02:08:16;;;;;;;57.22;19.67;;;;;;;18.07;100.00;100578.47;4913053;29;20043;-91
2023/10/03 02:10:50;;;;;;;56.25;19.20;;;;;;;18.04;100.00;100578.81;4889377;29;20059;-90
2023/10/03 02:13:18;;;;;;;59.65;19.65;;;;;;;18.13;100.00;100576.88;4896783;29;20028;-92
2023/10/03 02:15:45;;;;;;;58.92;18.75;;;;;;;18.15;100.00;100560.94;4919783;29;20032;-92
2023/10/03 02:18:13;;;;;;;50.05;18.70;;;;;;;18.17;100.00;100570.81;4908328;29;20027;-92
2023/10/03 02:20:52;;;;;;;55.70;18.67;;;;;;;18.26;100.00;100556.91;4921266;29;20119;-92
2023/10/03 02:23:23;;;;;;;56.40;19.88;;;;;;;18.19;100.00;100565.94;4891946;29;20032;-92
2023/10/03 02:25:50;;;;;;;57.03;18.55;;;;;;;18.21;100.00;100559.38;4917841;29;20045;-92
2023/10/03 02:28:17;;;;;;;59.67;17.15;;;;;;;18.24;100.00;100568.19;4900984;29;20120;-77
2023/10/03 02:30:48;;;;;;;56.28;18.50;;;;;;;18.23;100.00;100560.91;4935219;29;20042;-77
2023/10/03 02:33:15;;;;;;;52.50;18.02;;;;;;;18.27;100.00;100564.22;4913751;29;20043;-77
2023/10/03 02:35:43;;;;;;;52.58;16.65;;;;;;;18.22;100.00;100550.88;4930229;29;20372;-77
2023/10/03 02:38:12;;;;;;;62.00;17.67;;;;;;;18.25;100.00;100544.97;4912201;29;20031;-77
2023/10/03 02:40:39;;;;;;;54.78;17.40;;;;;;;18.40;100.00;100531.22;4930333;29;20027;-78
2023/10/03 02:43:05;;;;;;;50.70;16.80;;;;;;;18.35;100.00;100530.91;4922152;29;20036;-77
2023/10/03 02:45:31;;;;;;;42.78;16.77;;;;;;;18.31;100.00;100547.00;4909959;29;20150;-77
2023/10/03 02:47:58;;;;;;;52.25;17.67;;;;;;;18.35;100.00;100548.41;4914991;29;20054;-76
2023/10/03 02:50:24;;;;;;;51.72;16.13;;;;;;;18.43;100.00;100543.84;4904112;29;20945;-77
2023/10/03 02:52:52;;;;;;;55.10;17.98;;;;;;;18.48;100.00;100535.84;4934580;29;20038;-77
2023/10/03 02:55:18;;;;;;;53.05;16.17;;;;;;;18.44;100.00;100538.13;4934155;29;20023;-77
2023/10/03 02:57:45;;;;;;;52.33;16.40;;;;;;;18.54;100.00;100549.88;4922459;29;20083;-77
2023/10/03 03:00:15;;;;;;;52.65;16.80;;;;;;;18.55;100.00;100546.03;4914241;29;20115;-77
2023/10/03 03:02:50;;;;;;;44.15;14.55;;;;;;;18.63;100.00;100547.91;4937394;29;20047;-77
2023/10/03 03:05:17;;;;;;;44.00;15.95;;;;;;;18.80;100.00;100558.91;4929695;29;20031;-77
2023/10/03 03:07:44;;;;;;;53.15;15.75;;;;;;;18.74;100.00;100566.03;4935883;29;20494;-76
2023/10/03 03:10:13;;;;;;;42.58;14.65;;;;;;;18.92;100.00;100560.22;4893070;29;20055;-77
2023/10/03 03:12:40;;;;;;;42.47;13.95;;;;;;;18.94;100.00;100574.81;4933190;29;20043;-77
2023/10/03 03:15:07;;;;;;;40.97;14.20;;;;;;;19.19;100.00;100577.41;4918314;29;20027;-77
2023/10/03 03:17:32;;;;;;;45.63;14.32;;;;;;;19.48;100.00;100579.44;4913945;29;20141;-77
2023/10/03 03:19:58;;;;;;;44.03;13.85;;;;;;;19.67;100.00;100588.28;4930097;29;20036;-77
2023/10/03 03:22:24;;;;;;;42.60;14.27;;;;;;;19.64;100.00;100570.06;4925534;29;20043;-79
2023/10/03 03:24:53;;;;;;;46.80;13.70;;;;;;;19.92;100.00;100592.59;4916278;29;20495;-77
2023/10/03 03:27:18;;;;;;;44.85;14.18;;;;;;;19.74;100.00;100573.47;4912348;29;20078;-77
2023/10/03 03:32:45;;;;;;;40.50;14.00;;;;;;;19.74;100.00;100583.69;4887854;29;20044;-77
2023/10/03 03:35:10;;;;;;;45.35;13.40;;;;;;;19.74;100.00;100572.59;4914342;29;20604;-77
2023/10/03 03:37:37;;;;;;;37.67;13.43;;;;;;;19.68;100.00;100576.09;4934421;29;20402;-92
2023/10/03 03:40:12;;;;;;;41.85;13.30;;;;;;;19.70;100.00;100582.34;4922303;29;20036;-93
2023/10/03 03:42:37;;;;;;;44.47;12.85;;;;;;;19.71;100.00;100584.94;4933453;29;20039;-93
2023/10/03 03:45:04;;;;;;;45.85;15.00;;;;;;;19.67;100.00;100574.41;4922809;29;20035;-93
2023/10/03 03:47:31;;;;;;;37.00;13.23;;;;;;;19.58;100.00;100563.38;4888142;29;20090;-95
2023/10/03 03:50:10;;;;;;;43.10;14.20;;;;;;;19.57;100.00;100564.41;4906375;29;20031;-94
2023/10/03 03:52:36;;;;;;;37.30;12.10;;;;;;;19.51;100.00;100564.28;4908194;29;20035;-93
2023/10/03 03:55:04;;;;;;;41.67;13.73;;;;;;;19.42;100.00;100574.63;4893377;29;20087;-93
2023/10/03 03:57:30;;;;;;;53.80;14.25;;;;;;;19.46;100.00;100571.28;4921877;29;20055;-92
2023/10/03 03:59:57;;;;;;;42.60;13.35;;;;;;;19.42;100.00;100564.38;4894775;29;20412;-93
2023/10/03 04:02:24;;;;;;;36.70;13.38;;;;;;;19.37;100.00;100558.50;4897347;29;20052;-93
2023/10/03 04:04:49;;;;;;;40.72;12.57;;;;;;;19.46;100.00;100559.28;4905004;29;20688;-91
2023/10/03 04:07:17;;;;;;;35.72;12.27;;;;;;;19.49;100.00;100563.63;4924014;29;20075;-92
2023/10/03 04:09:42;;;;;;;42.50;12.05;;;;;;;19.49;100.00;100570.03;4921611;29;20036;-94
2023/10/03 04:12:09;;;;;;;45.28;11.60;;;;;;;19.46;100.00;100571.28;4910294;29;20490;-92
2023/10/03 04:14:35;;;;;;;38.13;12.38;;;;;;;19.44;100.00;100578.06;4911667;29;20163;-92
2023/10/03 04:17:00;;;;;;;32.10;11.63;;;;;;;19.40;100.00;100583.13;4934445;29;20032;-91
2023/10/03 04:19:25;;;;;;;37.38;11.40;;;;;;;19.40;100.00;100585.06;4919947;29;20055;-91
2023/10/03 04:21:54;;;;;;;35.08;10.63;;;;;;;19.34;100.00;100578.31;4916145;28;20023;-90
2023/10/03 04:26:57;;;;;;;34.15;11.20;;;;;;;19.36;100.00;100583.69;5446249;23;20078;-89
2023/10/03 04:29:22;;;;;;;35.53;11.98;;;;;;;19.31;100.00;100586.16;4927202;29;20035;-87
2023/10/03 04:31:48;;;;;;;36.10;11.07;;;;;;;19.32;100.00;100582.34;4920132;29;20031;-86
2023/10/03 04:34:17;;;;;;;28.27;10.65;;;;;;;19.46;100.00;100581.50;4936954;29;20042;-86
2023/10/03 04:36:45;;;;;;;31.20;10.77;;;;;;;19.42;100.00;100586.59;4920477;29;20037;-87
2023/10/03 04:39:11;;;;;;;27.35;9.25;;;;;;;19.47;100.00;100580.47;4918888;29;20089;-86
2023/10/03 04:41:43;;;;;;;25.80;8.15;;;;;;;19.55;100.00;100601.78;4929196;29;20032;-86
2023/10/03 04:44:09;;;;;;;26.30;8.93;;;;;;;19.47;100.00;100600.78;4931923;28;20054;-88
2023/10/03 04:46:34;;;;;;;31.92;9.63;;;;;;;19.42;100.00;100606.03;4930920;29;20307;-87
2023/10/03 04:49:01;;;;;;;28.58;9.25;;;;;;;19.37;100.00;100616.81;4885458;29;20510;-87
2023/10/03 04:51:26;;;;;;;25.20;9.35;;;;;;;19.37;100.00;100610.41;4930208;29;20561;-85
2023/10/03 04:53:52;;;;;;;32.78;9.55;;;;;;;19.46;100.00;100601.84;4902926;29;20023;-89
2023/10/03 04:56:18;;;;;;;24.13;9.95;;;;;;;19.38;100.00;100612.13;4906984;29;20115;-87
2023/10/03 04:58:44;;;;;;;23.95;9.23;;;;;;;19.36;100.00;100603.13;4927006;29;20490;-88
2023/10/03 05:01:09;;;;;;;25.05;8.55;;;;;;;19.45;100.00;100613.97;4901525;29;20137;-88
2023/10/03 05:03:37;;;;;;;28.92;9.05;;;;;;;19.41;100.00;100608.97;4901452;29;20188;-87
2023/10/03 05:06:02;;;;;;;27.98;9.82;;;;;;;19.37;100.00;100627.06;4902218;29;20059;-89
2023/10/03 05:08:28;;;;;;;36.55;9.82;;;;;;;19.42;100.00;100627.38;4904853;29;20521;-88
2023/10/03 05:10:54;;;;;;;22.15;9.27;;;;;;;19.35;100.00;100624.47;4902848;29;20046;-89
2023/10/03 05:13:21;;;;;;;29.83;8.95;;;;;;;19.39;100.00;100636.06;4921343;29;20031;-86
2023/10/03 05:15:46;;;;;;;25.30;7.93;;;;;;;19.38;100.00;100618.56;4933039;29;20039;-86
2023/10/03 05:18:13;;;;;;;18.25;7.53;;;;;;;19.36;100.00;100623.41;4938807;29;20556;-88
2023/10/03 05:20:39;;;;;;;34.60;7.65;;;;;;;19.29;100.00;100639.94;4898701;29;20035;-88
2023/10/03 05:23:05;;;;;;;20.85;7.25;;;;;;;19.18;100.00;100651.47;4902131;29;20039;-88
2023/10/03 05:25:36;;;;;;;15.27;6.78;;;;;;;19.21;100.00;100664.13;4908906;29;20028;-88
2023/10/03 05:28:02;;;;;;;14.23;6.13;;;;;;;19.15;100.00;100674.06;4930116;29;20063;-89
2023/10/03 05:30:30;;;;;;;21.73;6.07;;;;;;;19.18;100.00;100679.22;4934012;29;20035;-88
2023/10/03 05:32:55;;;;;;;23.98;6.32;;;;;;;19.12;100.00;100677.22;4903464;29;20036;-87
2023/10/03 05:35:21;;;;;;;17.33;5.45;;;;;;;19.06;100.00;100673.22;4916813;29;20047;-89
2023/10/03 05:37:50;;;;;;;14.13;5.68;;;;;;;19.08;100.00;100668.34;4937365;29;20454;-88
2023/10/03 05:40:19;;;;;;;19.65;6.15;;;;;;;19.00;100.00;100692.53;4922790;29;20028;-88
2023/10/03 05:42:47;;;;;;;16.80;5.55;;;;;;;18.96;100.00;100700.34;4935419;29;20098;-87
2023/10/03 05:45:13;;;;;;;16.98;6.05;;;;;;;18.91;100.00;100687.00;4932298;29;20031;-87
2023/10/03 05:47:44;;;;;;;17.23;5.72;;;;;;;18.94;100.00;100685.78;4933099;29;20447;-88
2023/10/03 05:50:10;;;;;;;15.13;5.63;;;;;;;18.87;100.00;100687.53;4910715;29;20039;-88
2023/10/03 05:52:36;;;;;;;18.75;5.28;;;;;;;18.87;100.00;100698.63;4919500;29;20023;-87
2023/10/03 05:55:02;;;;;;;25.60;5.82;;;;;;;18.85;100.00;100684.09;4925857;29;20099;-88
2023/10/03 05:57:28;;;;;;;10.70;5.25;;;;;;;18.83;100.00;100684.28;4938806;29;20034;-88
2023/10/03 05:59:53;;;;;;;14.15;5.50;;;;;;;18.75;100.00;100687.03;4920301;29;20068;-88
2023/10/03 06:02:18;;;;;;;15.02;5.07;;;;;;;18.71;100.00;100669.03;4902767;29;20047;-87
2023/10/03 06:04:46;;;;;;;11.23;5.40;;;;;;;18.64;100.00;100670.78;4902853;29;20466;-88
2023/10/03 06:07:12;;;;;;;16.00;5.07;;;;;;;18.60;100.00;100667.50;4939212;29;20078;-89
2023/10/03 06:09:37;;;;;;;16.20;5.55;;;;;;;18.59;100.00;100674.09;4936458;29;20040;-87
2023/10/03 06:12:03;;;;;;;19.77;5.82;;;;;;;18.62;100.00;100681.22;4915867;29;20501;-88
2023/10/03 06:14:30;;;;;;;13.13;6.07;;;;;;;18.54;100.00;100695.94;4933975;29;20042;-88
2023/10/03 06:16:56;;;;;;;21.45;6.63;;;;;;;18.54;100.00;100702.38;4934110;29;20071;-88
2023/10/03 06:19:21;;;;;;;17.27;6.28;;;;;;;18.51;100.00;100693.53;4904684;29;20031;-87
2023/10/03 06:21:48;;;;;;;25.80;6.25;;;;;;;18.49;100.00;100695.63;4917062;29;20481;-88
2023/10/03 06:24:14;;;;;;;19.95;5.88;;;;;;;18.49;100.00;100696.47;4947399;29;20040;-88
2023/10/03 06:26:44;;;;;;;21.48;6.75;;;;;;;18.47;100.00;100700.50;4936513;29;20167;-88
2023/10/03 06:29:09;;;;;;;22.02;7.18;;;;;;;18.52;100.00;100711.91;4940659;29;20414;-87
2023/10/03 06:31:35;;;;;;;22.98;7.13;;;;;;;18.54;100.00;100721.78;4926094;29;20080;-88
2023/10/03 06:34:01;;;;;;;13.60;6.22;;;;;;;18.52;100.00;100723.84;4914944;29;20031;-88
2023/10/03 06:36:26;;;;;;;16.35;6.45;;;;;;;18.54;100.00;100727.34;4918860;29;20061;-88
2023/10/03 06:38:52;;;;;;;20.38;7.03;;;;;;;18.49;100.00;100735.28;4920930;29;20047;-90
2023/10/03 06:41:21;;;;;;;25.08;6.50;;;;;;;18.48;100.00;100733.59;4939269;29;20472;-90
2023/10/03 06:43:47;;;;;;;15.18;6.57;;;;;;;18.47;100.00;100726.28;4943533;29;20035;-94
2023/10/03 06:46:18;;;;;;;19.40;7.47;;;;;;;18.48;100.00;100719.72;4927322;29;20035;-95
2023/10/03 06:48:46;;;;;;;15.25;6.63;;;;;;;18.47;100.00;100728.22;4895553;29;20039;-95
2023/10/03 06:51:12;;;;;;;16.40;6.43;;;;;;;18.44;100.00;100737.72;4907661;29;20067;-89
2023/10/03 06:53:39;;;;;;;17.55;6.85;;;;;;;18.42;100.00;100745.38;4927076;29;20080;-92
2023/10/03 06:56:04;;;;;;;16.42;6.68;;;;;;;18.42;100.00;100752.84;4919033;29;20035;-91
2023/10/03 06:58:31;;;;;;;17.45;6.55;;;;;;;18.39;100.00;100751.25;4907957;29;20040;-91
2023/10/03 07:00:56;;;;;;;24.73;6.60;;;;;;;18.34;100.00;100740.69;4895616;29;20079;-91
2023/10/03 07:03:25;;;;;;;19.30;6.53;;;;;;;18.42;100.00;100753.69;4907776;29;20043;-93
2023/10/03 07:05:51;;;;;;;20.33;6.68;;;;;;;18.43;100.00;100749.88;4928923;29;20103;-90
2023/10/03 07:10:51;;;;;;;14.13;6.18;;;;;;;18.48;100.00;100757.66;5616166;23;19923;-91
2023/10/03 07:13:20;;;;;;;12.80;6.45;;;;;;;18.47;100.00;100761.47;4920203;29;20035;-91
2023/10/03 07:15:45;;;;;;;13.15;5.75;;;;;;;18.46;100.00;100755.09;4915419;29;20038;-96
2023/10/03 07:23:53;;;;;;;15.60;6.13;;;;;;;18.49;100.00;100757.47;5773211;23;20040;-95
2023/10/03 07:26:19;;;;;;;13.45;6.25;;;;;;;18.59;100.00;100745.34;5605168;23;20026;-93
2023/10/03 07:28:44;;;;;;;12.68;5.95;;;;;;;18.51;100.00;100738.78;4957851;28;20052;-91
2023/10/03 07:31:12;;;;;;;18.38;6.22;;;;;;;18.65;100.00;100745.50;4934172;29;20042;-93
2023/10/03 07:33:43;;;;;;;18.40;6.57;;;;;;;18.64;100.00;100745.66;4944221;29;20024;-93
2023/10/03 07:36:10;;;;;;;14.18;6.00;;;;;;;18.68;100.00;100756.25;4934728;29;20114;-94
2023/10/03 07:38:36;;;;;;;19.05;6.82;;;;;;;18.70;100.00;100754.16;4932628;29;20046;-91
2023/10/03 07:41:09;;;;;;;15.55;5.57;;;;;;;18.63;100.00;100764.22;4941500;29;20027;-93
2023/10/03 07:43:35;;;;;;;16.58;5.85;;;;;;;18.66;100.00;100765.75;4941417;29;20019;-96
2023/10/03 07:46:01;;;;;;;13.23;5.85;;;;;;;18.68;100.00;100763.69;4925050;29;20035;-91
2023/10/03 07:48:29;;;;;;;21.08;6.93;;;;;;;18.65;100.00;100769.59;4920858;29;20783;-87
2023/10/03 07:50:54;;;;;;;18.75;6.15;;;;;;;18.73;100.00;100780.69;4928540;29;20118;-87
2023/10/03 07:53:19;;;;;;;12.10;5.60;;;;;;;18.67;100.00;100795.25;4936915;29;20071;-92
2023/10/03 07:55:45;;;;;;;17.63;6.50;;;;;;;18.70;100.00;100804.06;4920233;29;20039;-87
2023/10/03 07:58:14;;;;;;;22.80;7.00;;;;;;;18.71;100.00;100807.72;4952065;28;20035;-89
2023/10/03 08:00:45;;;;;;;17.58;6.80;;;;;;;18.68;100.00;100808.09;4936282;29;20036;-91
2023/10/03 08:03:12;;;;;;;16.52;6.60;;;;;;;18.62;100.00;100815.19;4930330;29;20028;-90
2023/10/03 08:05:39;;;;;;;17.17;6.30;;;;;;;18.59;100.00;100829.38;4927661;29;20043;-88
2023/10/03 08:08:07;;;;;;;18.33;7.40;;;;;;;18.44;100.00;100831.16;4921769;29;20398;-89
2023/10/03 08:10:33;;;;;;;16.38;6.95;;;;;;;18.33;100.00;100821.25;4940741;29;20024;-92
2023/10/03 08:12:59;;;;;;;23.38;8.27;;;;;;;18.24;100.00;100831.50;4907454;29;20024;-90
2023/10/03 08:15:31;;;;;;;25.23;8.18;;;;;;;18.24;100.00;100834.25;4923671;29;20058;-89
2023/10/03 08:17:57;;;;;;;27.83;7.07;;;;;;;18.29;100.00;100847.59;4925801;29;20039;-79
2023/10/03 08:20:26;;;;;;;25.90;7.75;;;;;;;18.27;100.00;100869.09;4938130;29;20023;-79
2023/10/03 08:22:51;;;;;;;26.55;7.72;;;;;;;18.30;100.00;100865.94;4954252;28;20450;-79
2023/10/03 08:25:21;;;;;;;18.27;7.32;;;;;;;18.30;100.00;100855.75;4918804;29;20098;-79
2023/10/03 08:27:49;;;;;;;17.13;7.30;;;;;;;18.37;100.00;100847.59;4933780;29;20406;-79
2023/10/03 08:30:29;;;;;;;17.45;7.43;;;;;;;18.40;100.00;100836.19;4934198;29;20040;-79
2023/10/03 08:33:00;;;;;;;19.95;6.95;;;;;;;18.63;100.00;100860.44;4936182;29;20067;-78
2023/10/03 08:35:37;;;;;;;15.77;6.37;;;;;;;18.62;100.00;100864.25;4940559;29;20135;-79
2023/10/03 08:38:11;;;;;;;17.70;6.30;;;;;;;18.68;100.00;100858.00;4921746;29;20339;-79
2023/10/03 08:40:42;;;;;;;20.73;6.55;;;;;;;18.74;100.00;100866.50;4942731;28;20032;-79
2023/10/03 08:43:09;;;;;;;17.38;5.80;;;;;;;18.71;100.00;100865.97;4940103;29;20032;-79
2023/10/03 08:45:41;;;;;;;10.50;5.35;;;;;;;18.69;100.00;100870.81;4934223;29;20398;-78
2023/10/03 08:48:07;;;;;;;16.30;6.05;;;;;;;18.72;100.00;100876.88;4934862;29;20122;-79
2023/10/03 08:50:46;;;;;;;18.75;6.30;;;;;;;18.68;100.00;100888.53;4934313;29;20031;-79
2023/10/03 08:53:13;;;;;;;9.82;5.55;;;;;;;18.80;100.00;100895.44;4934115;29;20054;-79
2023/10/03 08:55:40;;;;;;;16.95;5.93;;;;;;;18.69;100.00;100881.91;4934096;29;20027;-79
2023/10/03 08:58:08;;;;;;;17.38;6.07;;;;;;;18.65;100.00;100888.84;4934741;29;20035;-79
2023/10/03 09:00:40;;;;;;;15.30;6.10;;;;;;;18.57;100.00;100894.41;4941976;29;20036;-80
2023/10/03 09:03:12;;;;;;;13.90;5.50;;;;;;;18.53;100.00;100897.53;4927054;29;20036;-79
2023/10/03 09:05:42;;;;;;;10.30;4.07;;;;;;;18.53;100.00;100897.53;4933885;29;20028;-78
2023/10/03 09:08:09;;;;;;;12.07;3.75;;;;;;;18.62;100.00;100906.69;4946986;28;20047;-79
2023/10/03 09:10:42;;;;;;;11.02;3.33;;;;;;;18.70;100.00;100898.38;4935669;29;20422;-78
2023/10/03 09:13:15;;;;;;;8.73;2.97;;;;;;;18.74;100.00;100910.88;4937464;29;20037;-77
2023/10/03 09:15:42;;;;;;;8.23;2.88;;;;;;;18.77;100.00;100922.66;4921708;29;20403;-77
2023/10/03 09:18:15;;;;;;;5.82;2.65;;;;;;;18.83;100.00;100945.06;4936301;29;20058;-78
2023/10/03 09:20:42;;;;;;;;;;;;;;;18.68;100.00;100946.75;4933331;29;20035;-79
2023/10/03 09:23:09;;;;;;;7.30;2.17;;;;;;;18.74;100.00;100949.72;4928577;29;20342;-79
2023/10/03 09:25:38;;;;;;;9.30;2.20;;;;;;;18.59;100.00;100967.19;4915908;29;20052;-78
2023/10/03 09:28:07;;;;;;;7.90;1.75;;;;;;;18.65;100.00;100960.97;4934202;29;20082;-80
2023/10/03 09:30:38;;;;;;;10.68;1.88;;;;;;;18.81;100.00;100971.22;4917524;29;20177;-80
2023/10/03 09:33:08;;;;;;;5.28;1.77;;;;;;;18.60;100.00;100986.44;4902369;29;20347;-79
2023/10/03 09:35:34;;;;;;;8.77;1.50;;;;;;;18.48;100.00;100983.13;4933589;29;20459;-80
2023/10/03 09:38:06;;;;;;;9.15;1.98;;;;;;;18.43;100.00;100988.34;4933576;29;20035;-79
2023/10/03 09:40:51;;;;;;;7.43;1.48;;;;;;;18.17;100.00;101008.69;4914633;29;20545;-78
2023/10/03 09:43:27;;;;;;;7.60;0.90;;;;;;;18.04;100.00;101024.91;4933118;29;20487;-78
2023/10/03 09:45:56;;;;;;;2.83;0.60;;;;;;;18.04;100.00;101012.94;4934018;29;20027;-79
2023/10/03 09:48:25;;;;;;;5.93;0.55;;;;;;;17.90;100.00;101015.31;4917113;29;20090;-79
2023/10/03 09:51:05;;;;;;;3.78;0.85;;;;;;;18.03;100.00;101017.63;4933429;29;20031;-80
2023/10/03 09:53:32;;;;;;;5.10;0.93;;;;;;;17.98;100.00;101025.56;4924638;29;20024;-79
2023/10/03 09:56:00;;;;;;;3.92;1.25;;;;;;;17.87;100.00;101040.56;4918567;29;20041;-77
2023/10/03 09:58:31;;;;;;;5.25;0.68;;;;;;;18.00;100.00;101035.47;4933634;29;20696;-78
2023/10/03 10:00:58;;;;;;;5.75;0.70;;;;;;;17.91;100.00;101035.59;4933123;29;20043;-78
2023/10/03 10:03:36;;;;;;;6.88;1.45;;;;;;;17.94;100.00;101029.72;4917519;29;20031;-78
2023/10/03 10:06:21;;;;;;;8.32;1.55;;;;;;;17.87;100.00;101032.25;4932715;29;20027;-79
2023/10/03 10:09:04;;;;;;;9.10;1.05;;;;;;;17.85;100.00;101041.75;4933096;29;20032;-79
2023/10/03 10:11:30;;;;;;;1.45;0.63;;;;;;;18.07;100.00;101037.56;4911842;29;20024;-79
2023/10/03 10:14:10;;;;;;;7.10;2.45;;;;;;;18.25;100.00;101038.34;4917026;29;20040;-79
2023/10/03 10:17:05;;;;;;;6.10;1.10;;;;;;;18.28;100.00;101039.91;4899582;29;20050;-80
2023/10/03 10:20:09;;;;;;;12.90;1.23;;;;;;;18.30;100.00;101041.47;4930163;29;20363;-80
2023/10/03 10:23:02;;;;;;;4.30;0.90;;;;;;;18.04;100.00;101055.41;4928772;29;20095;-79
2023/10/03 10:25:57;;;;;;;7.72;1.42;;;;;;;17.94;100.00;101072.16;4931578;29;20100;-79
2023/10/03 10:28:30;;;;;;;4.72;0.90;;;;;;;17.85;100.00;101078.63;4908216;29;20048;-79
2023/10/03 10:31:34;;;;;;;4.65;1.00;;;;;;;17.66;100.00;101089.91;4933530;29;20038;-79
2023/10/03 10:34:20;;;;;;;5.53;1.30;;;;;;;17.54;100.00;101094.84;4921574;29;20039;-78
2023/10/03 10:37:20;;;;;;;7.68;1.27;;;;;;;17.45;100.00;101105.88;4939145;29;20409;-90
2023/10/03 10:39:54;;;;;;;4.97;1.02;;;;;;;17.60;100.00;101110.84;4900472;29;20047;-89
2023/10/03 10:42:25;;;;;;;9.35;1.17;;;;;;;17.80;100.00;101120.66;4939874;29;20508;-88
2023/10/03 10:45:15;;;;;;;2.15;0.93;;;;;;;17.73;100.00;101122.34;4923328;29;20516;-89
2023/10/03 10:47:46;;;;;;;3.63;0.90;;;;;;;17.99;100.00;101116.84;4939901;29;20031;-87
2023/10/03 10:50:12;;;;;;;10.30;1.52;;;;;;;17.86;100.00;101116.38;4925443;29;20040;-89
2023/10/03 10:52:56;;;;;;;4.68;1.30;;;;;;;17.96;100.00;101113.53;4933581;29;20036;-90
2023/10/03 10:55:26;;;;;;;2.45;0.90;;;;;;;17.89;100.00;101109.66;4941512;29;20107;-89
2023/10/03 10:58:07;;;;;;;2.97;0.93;;;;;;;18.04;100.00;101105.28;4907042;29;20039;-86
2023/10/03 11:00:33;;;;;;;3.35;0.90;;;;;;;17.64;100.00;101120.53;4932354;29;20035;-86
2023/10/03 11:03:00;;;;;;;6.40;1.10;;;;;;;17.41;100.00;101125.72;4933738;29;20054;-87
2023/10/03 11:05:30;;;;;;;5.07;1.10;;;;;;;17.18;100.00;101123.44;4918991;29;20039;-88
2023/10/03 11:07:57;;;;;;;4.07;1.10;;;;;;;17.29;100.00;101143.63;4937347;29;20083;-87
2023/10/03 11:10:22;;;;;;;4.03;1.08;;;;;;;17.40;100.00;101146.16;4937346;29;20031;-87
2023/10/03 11:12:59;;;;;;;8.32;0.98;;;;;;;17.52;100.00;101141.22;4935550;29;20055;-88
2023/10/03 11:15:26;;;;;;;5.30;1.30;;;;;;;17.82;100.00;101150.97;4949767;29;20111;-87
2023/10/03 11:17:52;;;;;;;6.40;1.30;;;;;;;17.96;100.00;101142.09;4920809;29;20129;-87
2023/10/03 11:20:17;;;;;;;6.60;1.05;;;;;;;18.00;100.00;101142.66;4920248;29;20490;-85
2023/10/03 11:22:47;;;;;;;3.08;0.90;;;;;;;17.59;100.00;101143.19;4935963;29;20494;-87
2023/10/03 11:25:13;;;;;;;4.38;0.93;;;;;;;17.36;100.00;101131.72;4933365;29;20035;-88
2023/10/03 11:27:38;;;;;;;9.82;1.20;;;;;;;17.29;100.00;101144.47;4952237;28;20056;-87